• vieta
  • image
  • image
  • image
mod_vvisit_countermod_vvisit_countermod_vvisit_countermod_vvisit_countermod_vvisit_countermod_vvisit_counter
mod_vvisit_counterŠiandien163
mod_vvisit_counterVakar681
mod_vvisit_counterŠią savaitę163
mod_vvisit_counterPraėjusią savaitę3955
mod_vvisit_counterŠį mėnesį15365
mod_vvisit_counterPraėjusį mėnesį19965
mod_vvisit_counterViso909179

Mes turime: 10 svečius, 5 bots online
Jūsų IP: 54.166.212.152
 , 
Šiandien: Geg 28, 2018
Oro uostas / Naujienos / 2014 Balandis

2014 Balandis


Šiaulių oro uosto atstovai dalyvavo 2014 m. balandžio 7-8 d. Stokholme vykusiame Šiaurės Europos logistų simpoziume, skirtame Šiaurės Europos krovinių gabenimo oro transportu rinkai.  Renginyje susibūrė krovinių operatoriai, ekspeditoriai, siuntėjai, oro linijų bendrovės, oro uostų atstovai, investuotojai, tiekėjai ir kt. Ryšium su esama neužtikrinta situacija oro transportu gabenamų krovinių pramonėje, renginyje buvo akcentuojama tai, jog reikia įvertinti rinkos tendencijas bei pagerinti bendradarbiavimą tarp siuntėjų, ekspeditorių ir vežėjų.


http://www.euroavia.com/nordic/gallery_2014/nordic_gallery_2014.html


APR2014 sw1APR2014 sw2

Šiandien

Pirmadienis, 28 Gegužė 2018

Orų prognozė aviacijai

[source: ADDS]
METAR
EYSA 280120Z AUTO 03005KT 9999NDV NCD 13/11 Q1027 =
TAF
SR / SS: 02:00 / 18:50 UTC (EYSA 2018-05-28)

Paieška

Lankytojai

Mes turime 15 svečius online

tic logo lt